This is the latest recevied weather packets stored in our database for station/object SR5NLK-1. If no packets are shown the sender has not sent any weather packets the latest 10 day(s).
| Time | Temp. | Humidity | Pressure | Rain* | Wind** | Luminosity | Snow |
|---|---|---|---|---|---|---|---|
| 1787724781 | 26.11° C | 54% | 1078.4 hPa | 0 mm | - | - | - |
| 1787724602 | 25.56° C | 55% | 1097.2 hPa | 0 mm | - | - | - |
| 1787724550 | 17.78° C | 93% | 952.5 hPa | 0 mm | - | - | - |
| 1787724302 | 25° C | 56% | 1035.1 hPa | 0 mm | - | - | - |
| 1787724181 | 16.67° C | 94% | 1039.7 hPa | 0 mm | - | - | - |
| 1787724002 | 25° C | 55% | 1044.2 hPa | 0 mm | - | - | - |
| 1787723702 | 25° C | 57% | 1050.7 hPa | 0 mm | - | - | - |
| 1787723440 | 12.78° C | 92% | 1039.7 hPa | 0 mm | - | - | - |
| 1787723403 | 25° C | 58% | 1078.4 hPa | 0 mm | - | - | - |
| 1787723102 | 24.44° C | 60% | 1042.8 hPa | 0 mm | - | - | - |
| 1787723026 | 11.67° C | 90% | 1075.3 hPa | 0 mm | - | - | - |
| 1787722801 | 23.89° C | 62% | 1072.1 hPa | 0 mm | - | - | - |
| 1787722657 | 11.11° C | 89% | 1084.7 hPa | 0 mm | - | - | - |
| 1787722284 | 10.56° C | 89% | 1043.5 hPa | 0 mm | - | - | - |
| 1787722202 | 23.33° C | 65% | 1036.6 hPa | 0 mm | - | - | - |
| 1787721903 | 10.56° C | 89% | 1034.1 hPa | 0 mm | - | - | - |
| 1787721903 | 22.78° C | 68% | 1043.9 hPa | 0 mm | - | - | - |
| 1787721602 | 22.78° C | 72% | 1081.5 hPa | 0 mm | - | - | - |
| 1787721509 | 10.56° C | 89% | 1035 hPa | 0 mm | - | - | - |
| 1787721304 | 22.22° C | 75% | 1048 hPa | 0 mm | - | - | - |
| 1787721002 | 21.67° C | 78% | 963.9 hPa | 0 mm | - | - | - |
| 1787720940 | 10.56° C | 89% | 1036.6 hPa | 0 mm | - | - | - |
| 1787720821 | 21.11° C | 80% | 1069 hPa | 0 mm | - | - | - |
| 1787720702 | 21.11° C | 82% | 1072.1 hPa | 0 mm | - | - | - |
| 1787720402 | 20° C | 86% | 1072.1 hPa | 0 mm | - | - | - |
* Rain latest hour (hover to see other rain measurements)
** Current wind speed in m/s (hover to see current wind gust speed)